sensor_id;sensor_type;location;lat;lon;timestamp;P1;durP1;ratioP1;P2;durP2;ratioP2
21878;SDS011;27908;42.708;23.278;2023-07-16T00:00:51;16.03;;;9.63;;
21878;SDS011;27908;42.708;23.278;2023-07-16T00:03:16;16.63;;;9.40;;
21878;SDS011;27908;42.708;23.278;2023-07-16T00:05:42;17.27;;;10.03;;
21878;SDS011;27908;42.708;23.278;2023-07-16T00:08:07;16.80;;;10.37;;
21878;SDS011;27908;42.708;23.278;2023-07-16T00:10:36;17.57;;;9.57;;
21878;SDS011;27908;42.708;23.278;2023-07-16T00:13:03;17.05;;;9.80;;
21878;SDS011;27908;42.708;23.278;2023-07-16T00:15:29;17.67;;;10.27;;
21878;SDS011;27908;42.708;23.278;2023-07-16T00:17:54;18.85;;;10.38;;
21878;SDS011;27908;42.708;23.278;2023-07-16T00:20:20;15.83;;;10.03;;
21878;SDS011;27908;42.708;23.278;2023-07-16T00:22:48;16.02;;;9.63;;
21878;SDS011;27908;42.708;23.278;2023-07-16T00:25:14;15.57;;;9.27;;
21878;SDS011;27908;42.708;23.278;2023-07-16T00:27:39;15.60;;;10.32;;
21878;SDS011;27908;42.708;23.278;2023-07-16T00:30:05;18.13;;;9.90;;
21878;SDS011;27908;42.708;23.278;2023-07-16T00:32:31;15.75;;;9.35;;
21878;SDS011;27908;42.708;23.278;2023-07-16T00:34:56;17.50;;;10.70;;
21878;SDS011;27908;42.708;23.278;2023-07-16T00:37:21;18.83;;;10.07;;
21878;SDS011;27908;42.708;23.278;2023-07-16T00:39:47;19.10;;;10.23;;
21878;SDS011;27908;42.708;23.278;2023-07-16T00:42:12;16.13;;;9.50;;
21878;SDS011;27908;42.708;23.278;2023-07-16T00:44:38;19.43;;;10.03;;
21878;SDS011;27908;42.708;23.278;2023-07-16T00:47:03;18.93;;;9.77;;
21878;SDS011;27908;42.708;23.278;2023-07-16T00:49:29;16.52;;;9.70;;
21878;SDS011;27908;42.708;23.278;2023-07-16T00:51:54;16.20;;;10.17;;
21878;SDS011;27908;42.708;23.278;2023-07-16T00:54:20;15.93;;;10.00;;
21878;SDS011;27908;42.708;23.278;2023-07-16T00:56:47;16.13;;;10.00;;
21878;SDS011;27908;42.708;23.278;2023-07-16T00:59:13;17.38;;;10.38;;
21878;SDS011;27908;42.708;23.278;2023-07-16T01:01:38;16.63;;;9.87;;
21878;SDS011;27908;42.708;23.278;2023-07-16T01:04:04;16.90;;;10.02;;
21878;SDS011;27908;42.708;23.278;2023-07-16T01:06:50;17.92;;;10.40;;
21878;SDS011;27908;42.708;23.278;2023-07-16T01:09:19;16.77;;;9.57;;
21878;SDS011;27908;42.708;23.278;2023-07-16T01:11:45;17.33;;;10.15;;
21878;SDS011;27908;42.708;23.278;2023-07-16T01:14:12;17.10;;;9.07;;
21878;SDS011;27908;42.708;23.278;2023-07-16T01:16:40;16.48;;;9.52;;
21878;SDS011;27908;42.708;23.278;2023-07-16T01:19:06;16.17;;;8.75;;
21878;SDS011;27908;42.708;23.278;2023-07-16T01:24:44;16.48;;;8.70;;
21878;SDS011;27908;42.708;23.278;2023-07-16T01:30:06;14.07;;;8.10;;
21878;SDS011;27908;42.708;23.278;2023-07-16T01:32:36;14.43;;;8.57;;
21878;SDS011;27908;42.708;23.278;2023-07-16T01:35:02;14.85;;;8.55;;
21878;SDS011;27908;42.708;23.278;2023-07-16T01:37:30;17.25;;;9.10;;
21878;SDS011;27908;42.708;23.278;2023-07-16T01:39:56;18.37;;;9.07;;
21878;SDS011;27908;42.708;23.278;2023-07-16T01:42:22;15.20;;;8.10;;
21878;SDS011;27908;42.708;23.278;2023-07-16T01:44:48;13.43;;;7.80;;
21878;SDS011;27908;42.708;23.278;2023-07-16T01:47:15;15.17;;;9.00;;
21878;SDS011;27908;42.708;23.278;2023-07-16T01:49:49;17.00;;;8.45;;
21878;SDS011;27908;42.708;23.278;2023-07-16T01:52:14;15.65;;;8.55;;
21878;SDS011;27908;42.708;23.278;2023-07-16T01:54:40;18.93;;;8.97;;
21878;SDS011;27908;42.708;23.278;2023-07-16T01:57:05;15.17;;;8.47;;
21878;SDS011;27908;42.708;23.278;2023-07-16T01:59:31;13.83;;;7.80;;
21878;SDS011;27908;42.708;23.278;2023-07-16T02:01:56;16.02;;;8.60;;
21878;SDS011;27908;42.708;23.278;2023-07-16T02:04:22;18.83;;;7.40;;
21878;SDS011;27908;42.708;23.278;2023-07-16T02:06:47;12.93;;;6.93;;
21878;SDS011;27908;42.708;23.278;2023-07-16T02:09:13;16.92;;;6.53;;
21878;SDS011;27908;42.708;23.278;2023-07-16T02:11:39;16.83;;;7.30;;
21878;SDS011;27908;42.708;23.278;2023-07-16T02:14:04;12.43;;;7.05;;
21878;SDS011;27908;42.708;23.278;2023-07-16T02:16:30;16.93;;;8.53;;
21878;SDS011;27908;42.708;23.278;2023-07-16T02:18:55;13.80;;;7.97;;
21878;SDS011;27908;42.708;23.278;2023-07-16T02:21:21;16.48;;;7.20;;
21878;SDS011;27908;42.708;23.278;2023-07-16T02:23:46;14.53;;;8.07;;
21878;SDS011;27908;42.708;23.278;2023-07-16T02:26:11;13.80;;;7.23;;
21878;SDS011;27908;42.708;23.278;2023-07-16T02:28:37;13.57;;;7.03;;
21878;SDS011;27908;42.708;23.278;2023-07-16T02:31:02;12.37;;;6.73;;
21878;SDS011;27908;42.708;23.278;2023-07-16T02:33:28;14.13;;;6.35;;
21878;SDS011;27908;42.708;23.278;2023-07-16T02:35:53;17.57;;;6.30;;
21878;SDS011;27908;42.708;23.278;2023-07-16T02:38:19;10.63;;;6.28;;
21878;SDS011;27908;42.708;23.278;2023-07-16T02:40:45;13.57;;;6.67;;
21878;SDS011;27908;42.708;23.278;2023-07-16T02:43:11;12.20;;;6.07;;
21878;SDS011;27908;42.708;23.278;2023-07-16T02:45:37;12.13;;;5.82;;
21878;SDS011;27908;42.708;23.278;2023-07-16T02:48:04;12.97;;;5.57;;
21878;SDS011;27908;42.708;23.278;2023-07-16T02:50:30;10.93;;;5.43;;
21878;SDS011;27908;42.708;23.278;2023-07-16T02:52:59;13.07;;;5.90;;
21878;SDS011;27908;42.708;23.278;2023-07-16T02:55:24;14.07;;;5.30;;
21878;SDS011;27908;42.708;23.278;2023-07-16T02:57:50;11.97;;;4.93;;
21878;SDS011;27908;42.708;23.278;2023-07-16T03:00:15;11.32;;;5.90;;
21878;SDS011;27908;42.708;23.278;2023-07-16T03:02:41;11.30;;;6.03;;
21878;SDS011;27908;42.708;23.278;2023-07-16T03:05:06;13.57;;;5.73;;
21878;SDS011;27908;42.708;23.278;2023-07-16T03:07:32;12.80;;;5.53;;
21878;SDS011;27908;42.708;23.278;2023-07-16T03:09:57;14.73;;;5.37;;
21878;SDS011;27908;42.708;23.278;2023-07-16T03:12:23;13.70;;;4.97;;
21878;SDS011;27908;42.708;23.278;2023-07-16T03:14:50;11.47;;;5.27;;
21878;SDS011;27908;42.708;23.278;2023-07-16T03:17:16;11.23;;;5.07;;
21878;SDS011;27908;42.708;23.278;2023-07-16T03:19:41;12.35;;;6.07;;
21878;SDS011;27908;42.708;23.278;2023-07-16T03:22:06;10.33;;;5.87;;
21878;SDS011;27908;42.708;23.278;2023-07-16T03:24:32;10.50;;;5.60;;
21878;SDS011;27908;42.708;23.278;2023-07-16T03:26:57;11.67;;;5.33;;
21878;SDS011;27908;42.708;23.278;2023-07-16T03:29:23;10.38;;;5.43;;
21878;SDS011;27908;42.708;23.278;2023-07-16T03:31:48;10.90;;;5.43;;
21878;SDS011;27908;42.708;23.278;2023-07-16T03:34:13;10.83;;;5.97;;
21878;SDS011;27908;42.708;23.278;2023-07-16T03:36:39;12.57;;;6.10;;
21878;SDS011;27908;42.708;23.278;2023-07-16T03:39:04;9.83;;;5.40;;
21878;SDS011;27908;42.708;23.278;2023-07-16T03:41:30;11.63;;;5.53;;
21878;SDS011;27908;42.708;23.278;2023-07-16T03:43:56;11.70;;;5.37;;
21878;SDS011;27908;42.708;23.278;2023-07-16T03:46:21;15.02;;;5.82;;
21878;SDS011;27908;42.708;23.278;2023-07-16T03:48:46;10.53;;;5.93;;
21878;SDS011;27908;42.708;23.278;2023-07-16T03:51:12;11.80;;;5.03;;
21878;SDS011;27908;42.708;23.278;2023-07-16T03:53:37;10.13;;;5.67;;
21878;SDS011;27908;42.708;23.278;2023-07-16T03:56:03;11.50;;;5.47;;
21878;SDS011;27908;42.708;23.278;2023-07-16T03:58:28;11.83;;;5.63;;
21878;SDS011;27908;42.708;23.278;2023-07-16T04:00:54;11.68;;;5.57;;
21878;SDS011;27908;42.708;23.278;2023-07-16T04:03:20;12.03;;;5.63;;
21878;SDS011;27908;42.708;23.278;2023-07-16T04:05:45;11.65;;;5.47;;
21878;SDS011;27908;42.708;23.278;2023-07-16T04:08:11;16.97;;;5.70;;
21878;SDS011;27908;42.708;23.278;2023-07-16T04:10:36;11.90;;;5.17;;
21878;SDS011;27908;42.708;23.278;2023-07-16T04:13:02;12.55;;;5.25;;
21878;SDS011;27908;42.708;23.278;2023-07-16T04:15:28;10.83;;;4.93;;
21878;SDS011;27908;42.708;23.278;2023-07-16T04:17:53;10.70;;;5.90;;
21878;SDS011;27908;42.708;23.278;2023-07-16T04:20:19;11.63;;;5.90;;
21878;SDS011;27908;42.708;23.278;2023-07-16T04:22:44;12.60;;;5.40;;
21878;SDS011;27908;42.708;23.278;2023-07-16T04:25:10;12.80;;;5.73;;
21878;SDS011;27908;42.708;23.278;2023-07-16T04:27:35;10.63;;;6.00;;
21878;SDS011;27908;42.708;23.278;2023-07-16T04:30:01;14.20;;;5.80;;
21878;SDS011;27908;42.708;23.278;2023-07-16T04:32:26;13.90;;;5.72;;
21878;SDS011;27908;42.708;23.278;2023-07-16T04:34:52;9.50;;;5.63;;
21878;SDS011;27908;42.708;23.278;2023-07-16T04:37:17;10.23;;;5.47;;
21878;SDS011;27908;42.708;23.278;2023-07-16T04:39:43;14.40;;;5.47;;
21878;SDS011;27908;42.708;23.278;2023-07-16T04:42:08;11.18;;;5.18;;
21878;SDS011;27908;42.708;23.278;2023-07-16T04:44:33;13.03;;;5.80;;
21878;SDS011;27908;42.708;23.278;2023-07-16T04:46:59;12.93;;;6.10;;
21878;SDS011;27908;42.708;23.278;2023-07-16T04:49:24;11.23;;;5.50;;
21878;SDS011;27908;42.708;23.278;2023-07-16T04:51:50;13.10;;;6.20;;
21878;SDS011;27908;42.708;23.278;2023-07-16T04:54:15;9.80;;;5.90;;
21878;SDS011;27908;42.708;23.278;2023-07-16T04:56:40;11.07;;;5.40;;
21878;SDS011;27908;42.708;23.278;2023-07-16T04:59:06;10.07;;;5.57;;
21878;SDS011;27908;42.708;23.278;2023-07-16T05:01:31;9.50;;;5.27;;
21878;SDS011;27908;42.708;23.278;2023-07-16T05:03:57;15.23;;;5.53;;
21878;SDS011;27908;42.708;23.278;2023-07-16T05:06:22;14.37;;;5.97;;
21878;SDS011;27908;42.708;23.278;2023-07-16T05:08:48;10.27;;;5.13;;
21878;SDS011;27908;42.708;23.278;2023-07-16T05:11:13;9.30;;;5.10;;
21878;SDS011;27908;42.708;23.278;2023-07-16T05:13:38;13.68;;;5.80;;
21878;SDS011;27908;42.708;23.278;2023-07-16T05:16:04;11.87;;;5.23;;
21878;SDS011;27908;42.708;23.278;2023-07-16T05:18:29;10.77;;;5.40;;
21878;SDS011;27908;42.708;23.278;2023-07-16T05:20:55;12.80;;;5.13;;
21878;SDS011;27908;42.708;23.278;2023-07-16T05:23:20;12.13;;;5.23;;
21878;SDS011;27908;42.708;23.278;2023-07-16T05:25:46;12.00;;;5.33;;
21878;SDS011;27908;42.708;23.278;2023-07-16T05:28:13;10.95;;;5.53;;
21878;SDS011;27908;42.708;23.278;2023-07-16T05:30:39;12.02;;;5.47;;
21878;SDS011;27908;42.708;23.278;2023-07-16T05:33:04;10.20;;;5.43;;
21878;SDS011;27908;42.708;23.278;2023-07-16T05:35:30;10.50;;;5.17;;
21878;SDS011;27908;42.708;23.278;2023-07-16T05:37:55;16.27;;;6.87;;
21878;SDS011;27908;42.708;23.278;2023-07-16T05:40:20;14.80;;;5.47;;
21878;SDS011;27908;42.708;23.278;2023-07-16T05:42:46;17.73;;;5.73;;
21878;SDS011;27908;42.708;23.278;2023-07-16T05:45:11;11.67;;;5.13;;
21878;SDS011;27908;42.708;23.278;2023-07-16T05:47:37;11.03;;;5.17;;
21878;SDS011;27908;42.708;23.278;2023-07-16T05:50:02;11.18;;;5.88;;
21878;SDS011;27908;42.708;23.278;2023-07-16T05:52:28;12.67;;;5.17;;
21878;SDS011;27908;42.708;23.278;2023-07-16T05:54:53;11.27;;;5.20;;
21878;SDS011;27908;42.708;23.278;2023-07-16T05:57:19;9.17;;;4.90;;
21878;SDS011;27908;42.708;23.278;2023-07-16T05:59:44;11.37;;;4.90;;
21878;SDS011;27908;42.708;23.278;2023-07-16T06:02:09;11.17;;;5.53;;
21878;SDS011;27908;42.708;23.278;2023-07-16T06:04:35;10.50;;;5.10;;
21878;SDS011;27908;42.708;23.278;2023-07-16T06:07:01;12.23;;;4.83;;
21878;SDS011;27908;42.708;23.278;2023-07-16T06:09:27;12.40;;;4.68;;
21878;SDS011;27908;42.708;23.278;2023-07-16T06:11:53;10.23;;;4.80;;
21878;SDS011;27908;42.708;23.278;2023-07-16T06:14:18;9.55;;;5.10;;
21878;SDS011;27908;42.708;23.278;2023-07-16T06:16:43;10.10;;;4.60;;
21878;SDS011;27908;42.708;23.278;2023-07-16T06:19:09;10.80;;;4.67;;
21878;SDS011;27908;42.708;23.278;2023-07-16T06:21:34;8.83;;;4.70;;
21878;SDS011;27908;42.708;23.278;2023-07-16T06:24:00;10.07;;;4.90;;
21878;SDS011;27908;42.708;23.278;2023-07-16T06:26:26;15.73;;;5.00;;
21878;SDS011;27908;42.708;23.278;2023-07-16T06:28:51;9.95;;;5.10;;
21878;SDS011;27908;42.708;23.278;2023-07-16T06:31:17;9.23;;;4.77;;
21878;SDS011;27908;42.708;23.278;2023-07-16T06:33:43;10.73;;;5.30;;
21878;SDS011;27908;42.708;23.278;2023-07-16T06:36:08;8.97;;;4.70;;
21878;SDS011;27908;42.708;23.278;2023-07-16T06:38:34;12.68;;;5.20;;
21878;SDS011;27908;42.708;23.278;2023-07-16T06:40:59;43.27;;;22.40;;
21878;SDS011;27908;42.708;23.278;2023-07-16T06:43:25;18.60;;;8.73;;
21878;SDS011;27908;42.708;23.278;2023-07-16T06:45:50;14.37;;;6.70;;
21878;SDS011;27908;42.708;23.278;2023-07-16T06:48:16;10.68;;;5.32;;
21878;SDS011;27908;42.708;23.278;2023-07-16T06:50:42;12.20;;;4.70;;
21878;SDS011;27908;42.708;23.278;2023-07-16T06:53:07;11.35;;;5.00;;
21878;SDS011;27908;42.708;23.278;2023-07-16T06:55:32;12.27;;;5.23;;
21878;SDS011;27908;42.708;23.278;2023-07-16T06:57:58;10.03;;;5.03;;
21878;SDS011;27908;42.708;23.278;2023-07-16T07:00:24;11.88;;;5.35;;
21878;SDS011;27908;42.708;23.278;2023-07-16T07:02:50;10.70;;;5.03;;
21878;SDS011;27908;42.708;23.278;2023-07-16T07:05:15;9.50;;;5.30;;
21878;SDS011;27908;42.708;23.278;2023-07-16T07:07:41;12.20;;;5.63;;
21878;SDS011;27908;42.708;23.278;2023-07-16T07:10:08;14.35;;;5.75;;
21878;SDS011;27908;42.708;23.278;2023-07-16T07:12:34;11.88;;;5.25;;
21878;SDS011;27908;42.708;23.278;2023-07-16T07:15:02;16.87;;;6.47;;
21878;SDS011;27908;42.708;23.278;2023-07-16T07:17:32;13.02;;;5.78;;
21878;SDS011;27908;42.708;23.278;2023-07-16T07:19:57;10.00;;;4.90;;
21878;SDS011;27908;42.708;23.278;2023-07-16T07:22:23;12.30;;;5.50;;
21878;SDS011;27908;42.708;23.278;2023-07-16T07:24:48;12.57;;;6.33;;
21878;SDS011;27908;42.708;23.278;2023-07-16T07:27:14;12.27;;;5.90;;
21878;SDS011;27908;42.708;23.278;2023-07-16T07:29:39;10.57;;;5.60;;
21878;SDS011;27908;42.708;23.278;2023-07-16T07:32:05;11.60;;;5.97;;
21878;SDS011;27908;42.708;23.278;2023-07-16T07:34:31;14.70;;;5.37;;
21878;SDS011;27908;42.708;23.278;2023-07-16T07:36:56;9.20;;;4.97;;
21878;SDS011;27908;42.708;23.278;2023-07-16T07:39:22;15.53;;;5.40;;
21878;SDS011;27908;42.708;23.278;2023-07-16T07:41:47;11.33;;;5.20;;
21878;SDS011;27908;42.708;23.278;2023-07-16T07:44:13;10.57;;;5.33;;
21878;SDS011;27908;42.708;23.278;2023-07-16T07:46:38;12.40;;;5.78;;
21878;SDS011;27908;42.708;23.278;2023-07-16T07:49:03;11.23;;;5.30;;
21878;SDS011;27908;42.708;23.278;2023-07-16T07:51:29;9.83;;;4.93;;
21878;SDS011;27908;42.708;23.278;2023-07-16T07:53:54;10.57;;;5.07;;
21878;SDS011;27908;42.708;23.278;2023-07-16T07:56:20;10.30;;;5.07;;
21878;SDS011;27908;42.708;23.278;2023-07-16T07:58:45;9.50;;;4.83;;
21878;SDS011;27908;42.708;23.278;2023-07-16T08:01:11;11.23;;;5.17;;
21878;SDS011;27908;42.708;23.278;2023-07-16T08:03:36;9.38;;;4.95;;
21878;SDS011;27908;42.708;23.278;2023-07-16T08:06:02;11.80;;;5.20;;
21878;SDS011;27908;42.708;23.278;2023-07-16T08:11:18;11.52;;;5.10;;
21878;SDS011;27908;42.708;23.278;2023-07-16T08:13:44;11.17;;;5.20;;
21878;SDS011;27908;42.708;23.278;2023-07-16T08:16:09;16.37;;;5.33;;
21878;SDS011;27908;42.708;23.278;2023-07-16T08:18:35;10.47;;;5.10;;
21878;SDS011;27908;42.708;23.278;2023-07-16T08:21:00;10.20;;;5.30;;
21878;SDS011;27908;42.708;23.278;2023-07-16T08:23:26;11.50;;;5.28;;
21878;SDS011;27908;42.708;23.278;2023-07-16T08:25:51;10.70;;;5.33;;
21878;SDS011;27908;42.708;23.278;2023-07-16T08:28:16;12.27;;;5.77;;
21878;SDS011;27908;42.708;23.278;2023-07-16T08:30:42;16.70;;;7.40;;
21878;SDS011;27908;42.708;23.278;2023-07-16T08:33:10;12.55;;;6.10;;
21878;SDS011;27908;42.708;23.278;2023-07-16T08:35:37;11.52;;;6.68;;
21878;SDS011;27908;42.708;23.278;2023-07-16T08:38:02;10.27;;;5.10;;
21878;SDS011;27908;42.708;23.278;2023-07-16T08:40:28;14.37;;;6.40;;
21878;SDS011;27908;42.708;23.278;2023-07-16T08:42:53;10.98;;;5.60;;
21878;SDS011;27908;42.708;23.278;2023-07-16T08:45:19;11.57;;;5.27;;
21878;SDS011;27908;42.708;23.278;2023-07-16T08:47:48;12.43;;;6.28;;
21878;SDS011;27908;42.708;23.278;2023-07-16T08:50:13;11.83;;;5.63;;
21878;SDS011;27908;42.708;23.278;2023-07-16T08:52:39;12.03;;;6.10;;
21878;SDS011;27908;42.708;23.278;2023-07-16T08:55:05;12.75;;;6.22;;
21878;SDS011;27908;42.708;23.278;2023-07-16T08:57:31;11.10;;;5.43;;
21878;SDS011;27908;42.708;23.278;2023-07-16T08:59:57;12.68;;;5.82;;
21878;SDS011;27908;42.708;23.278;2023-07-16T09:02:23;10.63;;;5.90;;
21878;SDS011;27908;42.708;23.278;2023-07-16T09:04:49;23.07;;;6.30;;
21878;SDS011;27908;42.708;23.278;2023-07-16T09:07:16;10.20;;;5.47;;
21878;SDS011;27908;42.708;23.278;2023-07-16T09:09:42;17.57;;;6.00;;
21878;SDS011;27908;42.708;23.278;2023-07-16T09:12:11;13.63;;;5.88;;
21878;SDS011;27908;42.708;23.278;2023-07-16T09:14:37;12.73;;;6.30;;
21878;SDS011;27908;42.708;23.278;2023-07-16T09:17:03;13.48;;;6.28;;
21878;SDS011;27908;42.708;23.278;2023-07-16T09:19:31;16.03;;;7.07;;
21878;SDS011;27908;42.708;23.278;2023-07-16T09:21:57;16.73;;;7.60;;
21878;SDS011;27908;42.708;23.278;2023-07-16T09:24:23;13.77;;;6.80;;
21878;SDS011;27908;42.708;23.278;2023-07-16T09:26:49;12.60;;;6.73;;
21878;SDS011;27908;42.708;23.278;2023-07-16T09:29:16;12.75;;;7.30;;
21878;SDS011;27908;42.708;23.278;2023-07-16T09:31:58;15.90;;;6.73;;
21878;SDS011;27908;42.708;23.278;2023-07-16T09:34:29;12.13;;;6.30;;
21878;SDS011;27908;42.708;23.278;2023-07-16T09:36:55;12.52;;;6.03;;
21878;SDS011;27908;42.708;23.278;2023-07-16T09:39:21;12.57;;;7.40;;
21878;SDS011;27908;42.708;23.278;2023-07-16T09:41:48;14.30;;;7.33;;
21878;SDS011;27908;42.708;23.278;2023-07-16T09:44:15;20.30;;;8.73;;
21878;SDS011;27908;42.708;23.278;2023-07-16T09:46:41;12.30;;;7.38;;
21878;SDS011;27908;42.708;23.278;2023-07-16T09:49:07;15.07;;;8.30;;
21878;SDS011;27908;42.708;23.278;2023-07-16T09:51:34;16.23;;;8.13;;
21878;SDS011;27908;42.708;23.278;2023-07-16T09:54:01;20.93;;;12.17;;
21878;SDS011;27908;42.708;23.278;2023-07-16T09:56:30;15.32;;;7.78;;
21878;SDS011;27908;42.708;23.278;2023-07-16T09:59:29;14.55;;;7.90;;
21878;SDS011;27908;42.708;23.278;2023-07-16T10:01:56;15.02;;;6.88;;
21878;SDS011;27908;42.708;23.278;2023-07-16T10:04:22;12.15;;;6.50;;
21878;SDS011;27908;42.708;23.278;2023-07-16T10:07:01;14.30;;;6.47;;
21878;SDS011;27908;42.708;23.278;2023-07-16T10:09:33;13.95;;;7.05;;
21878;SDS011;27908;42.708;23.278;2023-07-16T10:12:11;13.63;;;6.57;;
21878;SDS011;27908;42.708;23.278;2023-07-16T10:14:47;13.27;;;6.43;;
21878;SDS011;27908;42.708;23.278;2023-07-16T10:17:18;13.68;;;6.60;;
21878;SDS011;27908;42.708;23.278;2023-07-16T10:25:10;20.00;;;7.43;;
21878;SDS011;27908;42.708;23.278;2023-07-16T10:27:48;15.05;;;7.30;;
21878;SDS011;27908;42.708;23.278;2023-07-16T10:30:15;13.32;;;7.85;;
21878;SDS011;27908;42.708;23.278;2023-07-16T10:32:41;13.77;;;7.18;;
21878;SDS011;27908;42.708;23.278;2023-07-16T10:35:07;12.27;;;7.13;;
21878;SDS011;27908;42.708;23.278;2023-07-16T10:37:34;13.37;;;7.43;;
21878;SDS011;27908;42.708;23.278;2023-07-16T10:40:00;14.40;;;7.43;;
21878;SDS011;27908;42.708;23.278;2023-07-16T10:42:26;11.25;;;7.25;;
21878;SDS011;27908;42.708;23.278;2023-07-16T10:44:53;13.85;;;7.72;;
21878;SDS011;27908;42.708;23.278;2023-07-16T10:47:24;13.47;;;6.90;;
21878;SDS011;27908;42.708;23.278;2023-07-16T10:49:55;17.05;;;7.38;;
21878;SDS011;27908;42.708;23.278;2023-07-16T10:52:21;14.73;;;7.20;;
21878;SDS011;27908;42.708;23.278;2023-07-16T10:54:47;15.37;;;7.97;;
21878;SDS011;27908;42.708;23.278;2023-07-16T10:57:19;11.95;;;6.65;;
21878;SDS011;27908;42.708;23.278;2023-07-16T10:59:48;11.38;;;7.00;;
21878;SDS011;27908;42.708;23.278;2023-07-16T11:02:14;15.77;;;7.25;;
21878;SDS011;27908;42.708;23.278;2023-07-16T11:04:41;13.90;;;7.30;;
21878;SDS011;27908;42.708;23.278;2023-07-16T11:07:08;14.90;;;7.07;;
21878;SDS011;27908;42.708;23.278;2023-07-16T11:12:14;16.17;;;8.00;;
21878;SDS011;27908;42.708;23.278;2023-07-16T11:14:44;14.93;;;7.20;;
21878;SDS011;27908;42.708;23.278;2023-07-16T11:17:28;16.88;;;6.93;;
21878;SDS011;27908;42.708;23.278;2023-07-16T11:19:54;13.90;;;7.17;;
21878;SDS011;27908;42.708;23.278;2023-07-16T11:22:23;13.18;;;7.72;;
21878;SDS011;27908;42.708;23.278;2023-07-16T11:24:52;14.82;;;7.43;;
21878;SDS011;27908;42.708;23.278;2023-07-16T11:27:20;15.53;;;6.67;;
21878;SDS011;27908;42.708;23.278;2023-07-16T11:29:47;13.63;;;6.78;;
21878;SDS011;27908;42.708;23.278;2023-07-16T11:32:14;13.65;;;6.80;;
21878;SDS011;27908;42.708;23.278;2023-07-16T11:35:01;13.10;;;7.65;;
21878;SDS011;27908;42.708;23.278;2023-07-16T11:37:29;13.40;;;6.53;;
21878;SDS011;27908;42.708;23.278;2023-07-16T11:40:06;14.33;;;7.13;;
21878;SDS011;27908;42.708;23.278;2023-07-16T11:42:33;14.23;;;6.93;;
21878;SDS011;27908;42.708;23.278;2023-07-16T11:44:59;17.27;;;7.00;;
21878;SDS011;27908;42.708;23.278;2023-07-16T11:47:26;13.02;;;6.60;;
21878;SDS011;27908;42.708;23.278;2023-07-16T11:49:52;13.02;;;7.05;;
21878;SDS011;27908;42.708;23.278;2023-07-16T11:52:18;14.37;;;6.70;;
21878;SDS011;27908;42.708;23.278;2023-07-16T11:54:54;17.13;;;7.80;;
21878;SDS011;27908;42.708;23.278;2023-07-16T11:57:21;13.23;;;6.73;;
21878;SDS011;27908;42.708;23.278;2023-07-16T11:59:47;14.13;;;7.10;;
21878;SDS011;27908;42.708;23.278;2023-07-16T12:02:13;14.63;;;7.17;;
21878;SDS011;27908;42.708;23.278;2023-07-16T12:04:39;13.75;;;6.45;;
21878;SDS011;27908;42.708;23.278;2023-07-16T12:07:05;14.23;;;7.43;;
21878;SDS011;27908;42.708;23.278;2023-07-16T12:09:31;13.53;;;7.20;;
21878;SDS011;27908;42.708;23.278;2023-07-16T12:11:56;13.45;;;6.68;;
21878;SDS011;27908;42.708;23.278;2023-07-16T12:14:22;12.03;;;7.03;;
21878;SDS011;27908;42.708;23.278;2023-07-16T12:16:47;30.27;;;7.63;;
21878;SDS011;27908;42.708;23.278;2023-07-16T12:19:13;11.98;;;6.25;;
21878;SDS011;27908;42.708;23.278;2023-07-16T12:21:38;13.10;;;6.40;;
21878;SDS011;27908;42.708;23.278;2023-07-16T12:24:06;14.38;;;6.70;;
21878;SDS011;27908;42.708;23.278;2023-07-16T12:26:32;11.83;;;6.43;;
21878;SDS011;27908;42.708;23.278;2023-07-16T12:28:57;13.10;;;5.80;;
21878;SDS011;27908;42.708;23.278;2023-07-16T12:31:23;13.57;;;6.13;;
21878;SDS011;27908;42.708;23.278;2023-07-16T12:33:48;10.03;;;5.43;;
21878;SDS011;27908;42.708;23.278;2023-07-16T12:36:14;12.33;;;5.63;;
21878;SDS011;27908;42.708;23.278;2023-07-16T12:38:40;13.27;;;6.50;;
21878;SDS011;27908;42.708;23.278;2023-07-16T12:41:06;11.27;;;6.18;;
21878;SDS011;27908;42.708;23.278;2023-07-16T12:43:32;12.52;;;6.93;;
21878;SDS011;27908;42.708;23.278;2023-07-16T12:46:01;12.83;;;6.23;;
21878;SDS011;27908;42.708;23.278;2023-07-16T12:48:28;12.07;;;6.28;;
21878;SDS011;27908;42.708;23.278;2023-07-16T12:50:54;13.45;;;5.93;;
21878;SDS011;27908;42.708;23.278;2023-07-16T12:53:19;10.97;;;6.30;;
21878;SDS011;27908;42.708;23.278;2023-07-16T12:55:45;13.27;;;6.27;;
21878;SDS011;27908;42.708;23.278;2023-07-16T12:58:10;10.93;;;5.88;;
21878;SDS011;27908;42.708;23.278;2023-07-16T13:00:36;10.93;;;5.90;;
21878;SDS011;27908;42.708;23.278;2023-07-16T13:03:01;10.00;;;5.90;;
21878;SDS011;27908;42.708;23.278;2023-07-16T13:05:27;11.55;;;5.75;;
21878;SDS011;27908;42.708;23.278;2023-07-16T13:07:53;10.47;;;5.80;;
21878;SDS011;27908;42.708;23.278;2023-07-16T13:10:18;13.00;;;5.97;;
21878;SDS011;27908;42.708;23.278;2023-07-16T13:12:44;10.68;;;5.78;;
21878;SDS011;27908;42.708;23.278;2023-07-16T13:15:09;11.03;;;5.77;;
21878;SDS011;27908;42.708;23.278;2023-07-16T13:17:35;14.13;;;5.90;;
21878;SDS011;27908;42.708;23.278;2023-07-16T13:20:02;12.73;;;5.00;;
21878;SDS011;27908;42.708;23.278;2023-07-16T13:22:28;10.13;;;4.80;;
21878;SDS011;27908;42.708;23.278;2023-07-16T13:24:53;12.33;;;5.50;;
21878;SDS011;27908;42.708;23.278;2023-07-16T13:27:19;11.38;;;5.07;;
21878;SDS011;27908;42.708;23.278;2023-07-16T13:29:46;14.02;;;5.85;;
21878;SDS011;27908;42.708;23.278;2023-07-16T13:32:11;14.13;;;5.63;;
21878;SDS011;27908;42.708;23.278;2023-07-16T13:34:37;9.85;;;5.35;;
21878;SDS011;27908;42.708;23.278;2023-07-16T13:37:03;10.27;;;5.20;;
21878;SDS011;27908;42.708;23.278;2023-07-16T13:39:28;11.57;;;5.10;;
21878;SDS011;27908;42.708;23.278;2023-07-16T13:41:54;11.40;;;5.17;;
21878;SDS011;27908;42.708;23.278;2023-07-16T13:44:19;11.53;;;4.80;;
21878;SDS011;27908;42.708;23.278;2023-07-16T13:46:46;11.10;;;4.65;;
21878;SDS011;27908;42.708;23.278;2023-07-16T13:49:11;9.30;;;4.80;;
21878;SDS011;27908;42.708;23.278;2023-07-16T13:51:46;41.95;;;5.45;;
21878;SDS011;27908;42.708;23.278;2023-07-16T13:54:11;15.47;;;5.10;;
21878;SDS011;27908;42.708;23.278;2023-07-16T13:56:37;10.07;;;5.03;;
21878;SDS011;27908;42.708;23.278;2023-07-16T13:59:02;11.20;;;4.70;;
21878;SDS011;27908;42.708;23.278;2023-07-16T14:01:28;10.93;;;5.45;;
21878;SDS011;27908;42.708;23.278;2023-07-16T14:03:54;10.85;;;5.10;;
21878;SDS011;27908;42.708;23.278;2023-07-16T14:06:20;12.37;;;5.20;;
21878;SDS011;27908;42.708;23.278;2023-07-16T14:08:45;11.30;;;5.18;;
21878;SDS011;27908;42.708;23.278;2023-07-16T14:11:11;12.40;;;5.07;;
21878;SDS011;27908;42.708;23.278;2023-07-16T14:13:36;10.43;;;4.87;;
21878;SDS011;27908;42.708;23.278;2023-07-16T14:16:02;9.63;;;4.60;;
21878;SDS011;27908;42.708;23.278;2023-07-16T14:18:28;11.07;;;5.17;;
21878;SDS011;27908;42.708;23.278;2023-07-16T14:20:53;13.27;;;5.30;;
21878;SDS011;27908;42.708;23.278;2023-07-16T14:23:19;16.20;;;5.73;;
21878;SDS011;27908;42.708;23.278;2023-07-16T14:25:44;13.20;;;5.20;;
21878;SDS011;27908;42.708;23.278;2023-07-16T14:28:10;11.27;;;5.10;;
21878;SDS011;27908;42.708;23.278;2023-07-16T14:30:35;10.27;;;5.00;;
21878;SDS011;27908;42.708;23.278;2023-07-16T14:33:00;12.00;;;5.07;;